Tour Pomerol — 9V9183 — position and weather

sailwx.info

Track history (hours):
 
Tides and Currents Weather Stations Pressure Air Temp Water Temp Dewpoint Dewpoint Depression Visibility Wind Speed Wind Dir Waves Ship Positions

Tour Pomerol

Last reported at 2014-Dec-20 23:33 UTC. Time now 2014-Dec-21 01:54 UTC.
Position N 36°00' W 005°11'.

Length 120 m; draft 6.8 m.

Type: Tanker. MMSI: 563384980.

Date/timePositionNaut miles runAvg speedWind from/ knotsBaromVisibWave heightAir tempDewpointWater temp
2014-Dec-20 23:33N 36°00' W 005°11'1414.4
2014-Dec-20 22:33N 35°57' W 005°28'2713.1
2014-Dec-20 20:28N 35°54' W 006°02'4214.2
2014-Dec-20 17:32N 36°02' W 006°52'1414.2
2014-Dec-20 16:33N 36°05' W 007°09'1814.0
2014-Dec-20 15:18N 36°09' W 007°30'1013.8
2014-Dec-20 14:33N 36°12' W 007°43'1413.8
2014-Dec-20 13:33N 36°15' W 007°59'1813.6
2014-Dec-20 12:12N 36°19' W 008°22'913.5
2014-Dec-20 11:33N 36°21' W 008°32'1413.5
2014-Dec-20 10:32N 36°24' W 008°49'1813.6
2014-Dec-20 09:13N 36°28' W 009°10'3412.8
2014-Dec-20 06:33N 36°53' W 009°40'1413.9
2014-Dec-20 05:33N 37°06' W 009°44'1413.8
2014-Dec-20 04:32N 37°20' W 009°48'1414.2
2014-Dec-20 03:32N 37°34' W 009°52'2913.9
2014-Dec-20 01:28N 38°01' W 010°00'1713.7
2014-Dec-20 00:14N 38°18' W 010°05'1113.7
2014-Dec-19 23:24N 38°29' W 010°08'  
2014-Dec-16 18:11N 50°29' W 000°22'1213.1
2014-Dec-16 17:17N 50°31' W 000°04'1112.8
2014-Dec-16 16:27N 50°34' E 000°12'1112.4
2014-Dec-16 15:33N 50°37' E 000°29'1212.5
2014-Dec-16 14:33N 50°43' E 000°46'1413.3
2014-Dec-16 13:29N 50°52' E 001°04'1313.9
2014-Dec-16 12:34N 51°00' E 001°20'1413.6
2014-Dec-16 11:33N 51°09' E 001°37'1312.6
2014-Dec-16 10:33N 51°18' E 001°50'1212.1
2014-Dec-16 09:34N 51°28' E 002°01'1211.8
2014-Dec-16 08:33N 51°37' E 002°13'5711.3
2014-Dec-16 03:32N 52°04' E 003°35'1212.6
2014-Dec-16 02:33N 52°02' E 003°55'1010.3
2014-Dec-16 01:33N 51°57' E 004°09'1 1.3
2014-Dec-16 00:31N 51°56' E 004°11'0 0.0
2014-Dec-15 23:19N 51°56' E 004°11'0 0.0
2014-Dec-15 22:28N 51°56' E 004°11'0 0.0
2014-Dec-15 21:16N 51°56' E 004°11'0 0.0
2014-Dec-15 20:31N 51°56' E 004°11'0 0.0
2014-Dec-15 19:31N 51°56' E 004°11'0 0.0
2014-Dec-15 18:31N 51°56' E 004°11'0 0.0
2014-Dec-15 17:31N 51°56' E 004°11'0 0.0
2014-Dec-15 16:31N 51°56' E 004°11'0 0.0
2014-Dec-15 15:31N 51°56' E 004°11'0 0.0
2014-Dec-15 14:31N 51°56' E 004°11'0 0.0
2014-Dec-15 13:28N 51°56' E 004°11'0 0.0
2014-Dec-15 12:28N 51°56' E 004°11'0 0.0
2014-Dec-15 11:31N 51°56' E 004°11'0 0.4
2014-Dec-15 10:31N 51°56' E 004°11'0 0.0
2014-Dec-15 09:31N 51°56' E 004°11'0 0.0
2014-Dec-15 08:28N 51°56' E 004°11'0 0.0
2014-Dec-15 07:31N 51°56' E 004°11'0 0.0
2014-Dec-15 06:31N 51°56' E 004°11'0 0.0
2014-Dec-15 05:31N 51°56' E 004°11'0 0.0
2014-Dec-15 04:31N 51°56' E 004°11'0 0.0
2014-Dec-15 03:31N 51°56' E 004°11'0 0.0
2014-Dec-15 02:28N 51°56' E 004°11'0 0.0
2014-Dec-15 01:31N 51°56' E 004°11'0 0.0
2014-Dec-15 00:31N 51°56' E 004°11'0 0.0
2014-Dec-14 23:31N 51°56' E 004°11'0 0.0
2014-Dec-14 22:31N 51°56' E 004°11'0 0.0
2014-Dec-14 21:31N 51°56' E 004°11'0 0.0
2014-Dec-14 20:31N 51°56' E 004°11'0 0.0
2014-Dec-14 19:31N 51°56' E 004°11'0 0.0
2014-Dec-14 18:31N 51°56' E 004°11'0 0.0
2014-Dec-14 17:31N 51°56' E 004°11'0 0.0
2014-Dec-14 16:31N 51°56' E 004°11'0 0.0
2014-Dec-14 15:31N 51°56' E 004°11'0 0.0
2014-Dec-14 14:31N 51°56' E 004°11'0 0.0
2014-Dec-14 13:31N 51°56' E 004°11'0 0.0
2014-Dec-14 12:31N 51°56' E 004°11'0 0.0
2014-Dec-14 11:25N 51°56' E 004°11'0 0.0
2014-Dec-14 10:28N 51°56' E 004°11'0 0.0
2014-Dec-14 09:31N 51°56' E 004°11'0 0.0
2014-Dec-14 08:33N 51°56' E 004°11'5 4.6
2014-Dec-14 07:33N 51°59' E 004°05'9 8.6
2014-Dec-14 06:34N 51°54' E 004°17'2 1.4
2014-Dec-14 05:16N 51°53' E 004°19'0 0.0
2014-Dec-14 04:28N 51°53' E 004°19'0 0.0
2014-Dec-14 03:28N 51°53' E 004°19'0 0.0
2014-Dec-14 02:28N 51°53' E 004°19'0 0.0
2014-Dec-14 01:22N 51°53' E 004°19'0 0.0
2014-Dec-13 23:22N 51°53' E 004°19'0 0.0
2014-Dec-13 22:10N 51°53' E 004°19'0 0.0
2014-Dec-13 20:19N 51°53' E 004°19'0 0.0
2014-Dec-13 17:23N 51°53' E 004°19'0 0.0
2014-Dec-13 16:20N 51°53' E 004°19'0 0.0
2014-Dec-13 15:26N 51°53' E 004°19'0 0.0
2014-Dec-13 14:11N 51°53' E 004°19'0 0.0
2014-Dec-13 13:23N 51°53' E 004°19'0 0.0
2014-Dec-13 12:23N 51°53' E 004°19'0 0.0
2014-Dec-13 10:17N 51°53' E 004°19'0 0.0
2014-Dec-13 09:26N 51°53' E 004°19'0 0.0
2014-Dec-13 08:23N 51°53' E 004°19'0 0.0
2014-Dec-13 07:29N 51°53' E 004°19'0 0.0
2014-Dec-13 05:11N 51°53' E 004°19'0 0.0
2014-Dec-13 04:10N 51°53' E 004°19'0 0.0
2014-Dec-13 03:17N 51°53' E 004°19'0 0.0
2014-Dec-13 02:11N 51°53' E 004°19'0 0.0
2014-Dec-12 22:29N 51°53' E 004°19'0 0.0
2014-Dec-12 21:20N 51°53' E 004°19'0 0.0
2014-Dec-12 20:17N 51°53' E 004°19'0 0.0
2014-Dec-12 19:17N 51°53' E 004°19'0 0.0
2014-Dec-12 17:12N 51°53' E 004°19'0 0.0
2014-Dec-12 16:29N 51°53' E 004°19'0 0.0
2014-Dec-12 12:23N 51°53' E 004°19'0 0.0
2014-Dec-12 10:23N 51°53' E 004°19'0 0.0
2014-Dec-12 09:23N 51°53' E 004°19'0 0.0
2014-Dec-12 07:23N 51°53' E 004°19'0 0.0
2014-Dec-12 05:29N 51°53' E 004°19'0 0.0
2014-Dec-12 04:17N 51°53' E 004°19'0 0.0
2014-Dec-12 03:17N 51°53' E 004°19'0 0.0
2014-Dec-12 02:23N 51°53' E 004°19'0 0.0
2014-Dec-12 01:23N 51°53' E 004°19'0 0.0
2014-Dec-12 00:19N 51°53' E 004°19'2 2.6
2014-Dec-11 23:33N 51°54' E 004°16'9 9.1
2014-Dec-11 22:33N 51°59' E 004°04'1010.0
2014-Dec-11 21:33N 51°59' E 003°47'1211.7
2014-Dec-11 20:33N 51°56' E 003°29'4011.8
2014-Dec-11 17:10N 51°40' E 002°30'812.3
2014-Dec-11 16:33N 51°34' E 002°22'1313.0
2014-Dec-11 15:33N 51°23' E 002°11'1313.1
2014-Dec-11 14:33N 51°12' E 001°60'1414.4
2014-Dec-11 13:33N 51°03' E 001°42'1413.6
2014-Dec-11 12:33N 50°52' E 001°28'3811.7
2014-Dec-11 09:20N 50°26' E 000°45'  
Track history (hours):
 
Tides and Currents Weather Stations Pressure Air Temp Water Temp Dewpoint Dewpoint Depression Visibility Wind Speed Wind Dir Waves Ship Positions

Tour Pomerol

Last reported at 2014-Dec-20 23:33 UTC. Time now 2014-Dec-21 01:54 UTC.
Position N 36°00' W 005°11'.

Length 120 m; draft 6.8 m.

Type: Tanker. MMSI: 563384980.

Date/timePositionNaut miles runAvg speedWind from/ knotsBaromVisibWave heightAir tempDewpointWater temp
2014-Dec-20 23:33N 36°00' W 005°11'1414.4
2014-Dec-20 22:33N 35°57' W 005°28'2713.1
2014-Dec-20 20:28N 35°54' W 006°02'4214.2
2014-Dec-20 17:32N 36°02' W 006°52'1414.2
2014-Dec-20 16:33N 36°05' W 007°09'1814.0
2014-Dec-20 15:18N 36°09' W 007°30'1013.8
2014-Dec-20 14:33N 36°12' W 007°43'1413.8
2014-Dec-20 13:33N 36°15' W 007°59'1813.6
2014-Dec-20 12:12N 36°19' W 008°22'913.5
2014-Dec-20 11:33N 36°21' W 008°32'1413.5
2014-Dec-20 10:32N 36°24' W 008°49'1813.6
2014-Dec-20 09:13N 36°28' W 009°10'3412.8
2014-Dec-20 06:33N 36°53' W 009°40'1413.9
2014-Dec-20 05:33N 37°06' W 009°44'1413.8
2014-Dec-20 04:32N 37°20' W 009°48'1414.2
2014-Dec-20 03:32N 37°34' W 009°52'2913.9
2014-Dec-20 01:28N 38°01' W 010°00'1713.7
2014-Dec-20 00:14N 38°18' W 010°05'1113.7
2014-Dec-19 23:24N 38°29' W 010°08'  
2014-Dec-16 18:11N 50°29' W 000°22'1213.1
2014-Dec-16 17:17N 50°31' W 000°04'1112.8
2014-Dec-16 16:27N 50°34' E 000°12'1112.4
2014-Dec-16 15:33N 50°37' E 000°29'1212.5
2014-Dec-16 14:33N 50°43' E 000°46'1413.3
2014-Dec-16 13:29N 50°52' E 001°04'1313.9
2014-Dec-16 12:34N 51°00' E 001°20'1413.6
2014-Dec-16 11:33N 51°09' E 001°37'1312.6
2014-Dec-16 10:33N 51°18' E 001°50'1212.1
2014-Dec-16 09:34N 51°28' E 002°01'1211.8
2014-Dec-16 08:33N 51°37' E 002°13'5711.3
2014-Dec-16 03:32N 52°04' E 003°35'1212.6
2014-Dec-16 02:33N 52°02' E 003°55'1010.3
2014-Dec-16 01:33N 51°57' E 004°09'1 1.3
2014-Dec-16 00:31N 51°56' E 004°11'0 0.0
2014-Dec-15 23:19N 51°56' E 004°11'0 0.0
2014-Dec-15 22:28N 51°56' E 004°11'0 0.0
2014-Dec-15 21:16N 51°56' E 004°11'0 0.0
2014-Dec-15 20:31N 51°56' E 004°11'0 0.0
2014-Dec-15 19:31N 51°56' E 004°11'0 0.0
2014-Dec-15 18:31N 51°56' E 004°11'0 0.0
2014-Dec-15 17:31N 51°56' E 004°11'0 0.0
2014-Dec-15 16:31N 51°56' E 004°11'0 0.0
2014-Dec-15 15:31N 51°56' E 004°11'0 0.0
2014-Dec-15 14:31N 51°56' E 004°11'0 0.0
2014-Dec-15 13:28N 51°56' E 004°11'0 0.0
2014-Dec-15 12:28N 51°56' E 004°11'0 0.0
2014-Dec-15 11:31N 51°56' E 004°11'0 0.4
2014-Dec-15 10:31N 51°56' E 004°11'0 0.0
2014-Dec-15 09:31N 51°56' E 004°11'0 0.0
2014-Dec-15 08:28N 51°56' E 004°11'0 0.0
2014-Dec-15 07:31N 51°56' E 004°11'0 0.0
2014-Dec-15 06:31N 51°56' E 004°11'0 0.0
2014-Dec-15 05:31N 51°56' E 004°11'0 0.0
2014-Dec-15 04:31N 51°56' E 004°11'0 0.0
2014-Dec-15 03:31N 51°56' E 004°11'0 0.0
2014-Dec-15 02:28N 51°56' E 004°11'0 0.0
2014-Dec-15 01:31N 51°56' E 004°11'0 0.0
2014-Dec-15 00:31N 51°56' E 004°11'0 0.0
2014-Dec-14 23:31N 51°56' E 004°11'0 0.0
2014-Dec-14 22:31N 51°56' E 004°11'0 0.0
2014-Dec-14 21:31N 51°56' E 004°11'0 0.0
2014-Dec-14 20:31N 51°56' E 004°11'0 0.0
2014-Dec-14 19:31N 51°56' E 004°11'0 0.0
2014-Dec-14 18:31N 51°56' E 004°11'0 0.0
2014-Dec-14 17:31N 51°56' E 004°11'0 0.0
2014-Dec-14 16:31N 51°56' E 004°11'0 0.0
2014-Dec-14 15:31N 51°56' E 004°11'0 0.0
2014-Dec-14 14:31N 51°56' E 004°11'0 0.0
2014-Dec-14 13:31N 51°56' E 004°11'0 0.0
2014-Dec-14 12:31N 51°56' E 004°11'0 0.0
2014-Dec-14 11:25N 51°56' E 004°11'0 0.0
2014-Dec-14 10:28N 51°56' E 004°11'0 0.0
2014-Dec-14 09:31N 51°56' E 004°11'0 0.0
2014-Dec-14 08:33N 51°56' E 004°11'5 4.6
2014-Dec-14 07:33N 51°59' E 004°05'9 8.6
2014-Dec-14 06:34N 51°54' E 004°17'2 1.4
2014-Dec-14 05:16N 51°53' E 004°19'0 0.0
2014-Dec-14 04:28N 51°53' E 004°19'0 0.0
2014-Dec-14 03:28N 51°53' E 004°19'0 0.0
2014-Dec-14 02:28N 51°53' E 004°19'0 0.0
2014-Dec-14 01:22N 51°53' E 004°19'0 0.0
2014-Dec-13 23:22N 51°53' E 004°19'0 0.0
2014-Dec-13 22:10N 51°53' E 004°19'0 0.0
2014-Dec-13 20:19N 51°53' E 004°19'0 0.0
2014-Dec-13 17:23N 51°53' E 004°19'0 0.0
2014-Dec-13 16:20N 51°53' E 004°19'0 0.0
2014-Dec-13 15:26N 51°53' E 004°19'0 0.0
2014-Dec-13 14:11N 51°53' E 004°19'0 0.0
2014-Dec-13 13:23N 51°53' E 004°19'0 0.0
2014-Dec-13 12:23N 51°53' E 004°19'0 0.0
2014-Dec-13 10:17N 51°53' E 004°19'0 0.0
2014-Dec-13 09:26N 51°53' E 004°19'0 0.0
2014-Dec-13 08:23N 51°53' E 004°19'0 0.0
2014-Dec-13 07:29N 51°53' E 004°19'0 0.0
2014-Dec-13 05:11N 51°53' E 004°19'0 0.0
2014-Dec-13 04:10N 51°53' E 004°19'0 0.0
2014-Dec-13 03:17N 51°53' E 004°19'0 0.0
2014-Dec-13 02:11N 51°53' E 004°19'0 0.0
2014-Dec-12 22:29N 51°53' E 004°19'0 0.0
2014-Dec-12 21:20N 51°53' E 004°19'0 0.0
2014-Dec-12 20:17N 51°53' E 004°19'0 0.0
2014-Dec-12 19:17N 51°53' E 004°19'0 0.0
2014-Dec-12 17:12N 51°53' E 004°19'0 0.0
2014-Dec-12 16:29N 51°53' E 004°19'0 0.0
2014-Dec-12 12:23N 51°53' E 004°19'0 0.0
2014-Dec-12 10:23N 51°53' E 004°19'0 0.0
2014-Dec-12 09:23N 51°53' E 004°19'0 0.0
2014-Dec-12 07:23N 51°53' E 004°19'0 0.0
2014-Dec-12 05:29N 51°53' E 004°19'0 0.0
2014-Dec-12 04:17N 51°53' E 004°19'0 0.0
2014-Dec-12 03:17N 51°53' E 004°19'0 0.0
2014-Dec-12 02:23N 51°53' E 004°19'0 0.0
2014-Dec-12 01:23N 51°53' E 004°19'0 0.0
2014-Dec-12 00:19N 51°53' E 004°19'2 2.6
2014-Dec-11 23:33N 51°54' E 004°16'9 9.1
2014-Dec-11 22:33N 51°59' E 004°04'1010.0
2014-Dec-11 21:33N 51°59' E 003°47'1211.7
2014-Dec-11 20:33N 51°56' E 003°29'4011.8
2014-Dec-11 17:10N 51°40' E 002°30'812.3
2014-Dec-11 16:33N 51°34' E 002°22'1313.0
2014-Dec-11 15:33N 51°23' E 002°11'1313.1
2014-Dec-11 14:33N 51°12' E 001°60'1414.4
2014-Dec-11 13:33N 51°03' E 001°42'1413.6
2014-Dec-11 12:33N 50°52' E 001°28'3811.7
2014-Dec-11 09:20N 50°26' E 000°45'  

Dump ship's entire track history